sensor_id;sensor_type;location;lat;lon;timestamp;P1;durP1;ratioP1;P2;durP2;ratioP2
77409;SDS011;66481;51.332;22.804;2023-05-18T00:01:07;11.23;;;5.50;;
77409;SDS011;66481;51.332;22.804;2023-05-18T00:05:08;10.80;;;6.60;;
77409;SDS011;66481;51.332;22.804;2023-05-18T00:09:09;10.38;;;5.32;;
77409;SDS011;66481;51.332;22.804;2023-05-18T00:13:10;9.77;;;6.00;;
77409;SDS011;66481;51.332;22.804;2023-05-18T00:17:11;5.57;;;4.30;;
77409;SDS011;66481;51.332;22.804;2023-05-18T00:21:16;5.68;;;3.90;;
77409;SDS011;66481;51.332;22.804;2023-05-18T00:25:17;8.95;;;5.43;;
77409;SDS011;66481;51.332;22.804;2023-05-18T00:29:18;12.82;;;5.95;;
77409;SDS011;66481;51.332;22.804;2023-05-18T00:33:19;10.35;;;5.80;;
77409;SDS011;66481;51.332;22.804;2023-05-18T00:37:21;9.13;;;5.60;;
77409;SDS011;66481;51.332;22.804;2023-05-18T00:41:21;12.73;;;5.68;;
77409;SDS011;66481;51.332;22.804;2023-05-18T00:45:22;13.57;;;5.20;;
77409;SDS011;66481;51.332;22.804;2023-05-18T00:49:23;10.90;;;5.68;;
77409;SDS011;66481;51.332;22.804;2023-05-18T00:53:24;9.52;;;4.43;;
77409;SDS011;66481;51.332;22.804;2023-05-18T00:57:26;9.95;;;4.85;;
77409;SDS011;66481;51.332;22.804;2023-05-18T01:01:29;11.18;;;5.05;;
77409;SDS011;66481;51.332;22.804;2023-05-18T01:05:33;10.93;;;4.97;;
77409;SDS011;66481;51.332;22.804;2023-05-18T01:09:34;8.68;;;3.80;;
77409;SDS011;66481;51.332;22.804;2023-05-18T01:13:50;7.97;;;4.13;;
77409;SDS011;66481;51.332;22.804;2023-05-18T01:18:01;9.90;;;4.10;;
77409;SDS011;66481;51.332;22.804;2023-05-18T01:22:47;7.50;;;3.90;;
77409;SDS011;66481;51.332;22.804;2023-05-18T01:27:09;10.95;;;4.30;;
77409;SDS011;66481;51.332;22.804;2023-05-18T01:31:14;10.20;;;3.55;;
77409;SDS011;66481;51.332;22.804;2023-05-18T01:35:15;9.70;;;3.45;;
77409;SDS011;66481;51.332;22.804;2023-05-18T01:39:16;5.68;;;2.92;;
77409;SDS011;66481;51.332;22.804;2023-05-18T01:43:19;8.23;;;3.00;;
77409;SDS011;66481;51.332;22.804;2023-05-18T01:47:23;7.68;;;3.05;;
77409;SDS011;66481;51.332;22.804;2023-05-18T01:51:25;5.43;;;2.65;;
77409;SDS011;66481;51.332;22.804;2023-05-18T01:55:32;8.80;;;3.40;;
77409;SDS011;66481;51.332;22.804;2023-05-18T01:59:36;6.05;;;3.55;;
77409;SDS011;66481;51.332;22.804;2023-05-18T02:03:38;7.40;;;3.45;;
77409;SDS011;66481;51.332;22.804;2023-05-18T02:07:39;6.63;;;3.10;;
77409;SDS011;66481;51.332;22.804;2023-05-18T02:11:40;8.98;;;3.03;;
77409;SDS011;66481;51.332;22.804;2023-05-18T02:15:41;9.02;;;3.83;;
77409;SDS011;66481;51.332;22.804;2023-05-18T02:19:43;9.18;;;3.28;;
77409;SDS011;66481;51.332;22.804;2023-05-18T02:23:44;12.43;;;3.13;;
77409;SDS011;66481;51.332;22.804;2023-05-18T02:27:46;7.78;;;2.80;;
77409;SDS011;66481;51.332;22.804;2023-05-18T02:31:47;12.23;;;3.40;;
77409;SDS011;66481;51.332;22.804;2023-05-18T02:35:48;7.97;;;3.28;;
77409;SDS011;66481;51.332;22.804;2023-05-18T02:39:49;6.32;;;3.45;;
77409;SDS011;66481;51.332;22.804;2023-05-18T02:43:50;6.82;;;3.40;;
77409;SDS011;66481;51.332;22.804;2023-05-18T02:47:51;10.63;;;4.43;;
77409;SDS011;66481;51.332;22.804;2023-05-18T02:51:52;8.23;;;3.60;;
77409;SDS011;66481;51.332;22.804;2023-05-18T02:55:53;6.78;;;3.22;;
77409;SDS011;66481;51.332;22.804;2023-05-18T02:59:56;6.68;;;4.57;;
77409;SDS011;66481;51.332;22.804;2023-05-18T03:03:57;8.38;;;3.90;;
77409;SDS011;66481;51.332;22.804;2023-05-18T03:07:58;10.38;;;3.90;;
77409;SDS011;66481;51.332;22.804;2023-05-18T03:12:02;9.73;;;3.63;;
77409;SDS011;66481;51.332;22.804;2023-05-18T03:16:03;8.73;;;3.40;;
77409;SDS011;66481;51.332;22.804;2023-05-18T03:20:05;7.70;;;3.22;;
77409;SDS011;66481;51.332;22.804;2023-05-18T03:24:07;8.55;;;3.42;;
77409;SDS011;66481;51.332;22.804;2023-05-18T03:28:08;8.15;;;3.63;;
77409;SDS011;66481;51.332;22.804;2023-05-18T03:32:09;7.30;;;2.92;;
77409;SDS011;66481;51.332;22.804;2023-05-18T03:36:10;7.40;;;2.80;;
77409;SDS011;66481;51.332;22.804;2023-05-18T03:40:13;6.20;;;2.63;;
77409;SDS011;66481;51.332;22.804;2023-05-18T03:44:15;5.28;;;2.58;;
77409;SDS011;66481;51.332;22.804;2023-05-18T03:48:16;6.38;;;2.47;;
77409;SDS011;66481;51.332;22.804;2023-05-18T03:52:17;3.78;;;2.28;;
77409;SDS011;66481;51.332;22.804;2023-05-18T03:56:21;10.68;;;2.75;;
77409;SDS011;66481;51.332;22.804;2023-05-18T04:00:23;7.65;;;2.33;;
77409;SDS011;66481;51.332;22.804;2023-05-18T04:04:24;6.40;;;2.85;;
77409;SDS011;66481;51.332;22.804;2023-05-18T04:08:26;5.18;;;2.53;;
77409;SDS011;66481;51.332;22.804;2023-05-18T04:12:29;6.97;;;2.72;;
77409;SDS011;66481;51.332;22.804;2023-05-18T04:16:31;9.35;;;2.30;;
77409;SDS011;66481;51.332;22.804;2023-05-18T04:20:32;4.07;;;2.22;;
77409;SDS011;66481;51.332;22.804;2023-05-18T04:24:34;4.57;;;2.10;;
77409;SDS011;66481;51.332;22.804;2023-05-18T04:28:35;4.63;;;2.15;;
77409;SDS011;66481;51.332;22.804;2023-05-18T04:32:37;4.03;;;1.73;;
77409;SDS011;66481;51.332;22.804;2023-05-18T04:36:38;6.45;;;2.60;;
77409;SDS011;66481;51.332;22.804;2023-05-18T04:40:42;7.25;;;2.08;;
77409;SDS011;66481;51.332;22.804;2023-05-18T04:44:43;4.40;;;1.90;;
77409;SDS011;66481;51.332;22.804;2023-05-18T04:48:44;5.45;;;1.65;;
77409;SDS011;66481;51.332;22.804;2023-05-18T04:52:49;8.35;;;2.00;;
77409;SDS011;66481;51.332;22.804;2023-05-18T04:56:51;2.95;;;1.80;;
77409;SDS011;66481;51.332;22.804;2023-05-18T05:00:52;3.90;;;1.65;;
77409;SDS011;66481;51.332;22.804;2023-05-18T05:04:53;4.32;;;1.77;;
77409;SDS011;66481;51.332;22.804;2023-05-18T05:08:54;3.05;;;1.67;;
77409;SDS011;66481;51.332;22.804;2023-05-18T05:12:56;3.00;;;1.92;;
77409;SDS011;66481;51.332;22.804;2023-05-18T05:17:02;3.58;;;1.33;;
77409;SDS011;66481;51.332;22.804;2023-05-18T05:21:03;4.80;;;1.67;;
77409;SDS011;66481;51.332;22.804;2023-05-18T05:25:04;2.60;;;1.50;;
77409;SDS011;66481;51.332;22.804;2023-05-18T05:29:06;5.00;;;1.55;;
77409;SDS011;66481;51.332;22.804;2023-05-18T05:33:07;3.88;;;1.48;;
77409;SDS011;66481;51.332;22.804;2023-05-18T05:37:08;2.88;;;1.42;;
77409;SDS011;66481;51.332;22.804;2023-05-18T05:41:09;2.60;;;1.40;;
77409;SDS011;66481;51.332;22.804;2023-05-18T05:45:10;2.55;;;1.70;;
77409;SDS011;66481;51.332;22.804;2023-05-18T05:49:11;4.68;;;1.70;;
77409;SDS011;66481;51.332;22.804;2023-05-18T05:53:12;5.95;;;1.88;;
77409;SDS011;66481;51.332;22.804;2023-05-18T05:57:17;4.18;;;1.35;;
77409;SDS011;66481;51.332;22.804;2023-05-18T06:01:18;5.10;;;1.88;;
77409;SDS011;66481;51.332;22.804;2023-05-18T06:05:19;4.47;;;1.52;;
77409;SDS011;66481;51.332;22.804;2023-05-18T06:09:20;3.55;;;1.77;;
77409;SDS011;66481;51.332;22.804;2023-05-18T06:13:21;3.60;;;1.60;;
77409;SDS011;66481;51.332;22.804;2023-05-18T06:17:22;3.97;;;1.80;;
77409;SDS011;66481;51.332;22.804;2023-05-18T06:21:24;11.73;;;2.15;;
77409;SDS011;66481;51.332;22.804;2023-05-18T06:25:26;4.55;;;2.08;;
77409;SDS011;66481;51.332;22.804;2023-05-18T06:29:27;4.57;;;1.70;;
77409;SDS011;66481;51.332;22.804;2023-05-18T06:33:30;4.05;;;1.60;;
77409;SDS011;66481;51.332;22.804;2023-05-18T06:37:31;4.75;;;2.10;;
77409;SDS011;66481;51.332;22.804;2023-05-18T06:41:34;4.47;;;1.80;;
77409;SDS011;66481;51.332;22.804;2023-05-18T06:45:35;5.72;;;1.90;;
77409;SDS011;66481;51.332;22.804;2023-05-18T06:49:36;4.30;;;1.80;;
77409;SDS011;66481;51.332;22.804;2023-05-18T06:53:37;4.70;;;2.30;;
77409;SDS011;66481;51.332;22.804;2023-05-18T06:57:38;5.63;;;1.90;;
77409;SDS011;66481;51.332;22.804;2023-05-18T07:01:39;4.05;;;1.90;;
77409;SDS011;66481;51.332;22.804;2023-05-18T07:05:40;6.82;;;2.00;;
77409;SDS011;66481;51.332;22.804;2023-05-18T07:09:41;5.38;;;1.80;;
77409;SDS011;66481;51.332;22.804;2023-05-18T07:13:45;8.18;;;1.92;;
77409;SDS011;66481;51.332;22.804;2023-05-18T07:17:46;3.08;;;1.75;;
77409;SDS011;66481;51.332;22.804;2023-05-18T07:21:47;3.75;;;2.13;;
77409;SDS011;66481;51.332;22.804;2023-05-18T07:25:48;4.22;;;2.08;;
77409;SDS011;66481;51.332;22.804;2023-05-18T07:29:49;3.67;;;1.80;;
77409;SDS011;66481;51.332;22.804;2023-05-18T07:33:51;3.80;;;1.80;;
77409;SDS011;66481;51.332;22.804;2023-05-18T07:37:52;4.45;;;1.80;;
77409;SDS011;66481;51.332;22.804;2023-05-18T07:41:54;4.13;;;2.22;;
77409;SDS011;66481;51.332;22.804;2023-05-18T07:45:56;4.38;;;1.80;;
77409;SDS011;66481;51.332;22.804;2023-05-18T07:49:56;5.95;;;2.20;;
77409;SDS011;66481;51.332;22.804;2023-05-18T07:53:57;6.07;;;1.80;;
77409;SDS011;66481;51.332;22.804;2023-05-18T07:57:59;3.28;;;1.65;;
77409;SDS011;66481;51.332;22.804;2023-05-18T08:02:01;5.03;;;2.22;;
77409;SDS011;66481;51.332;22.804;2023-05-18T08:06:02;2.67;;;2.15;;
77409;SDS011;66481;51.332;22.804;2023-05-18T08:10:03;2.97;;;2.05;;
77409;SDS011;66481;51.332;22.804;2023-05-18T08:14:05;4.65;;;2.35;;
77409;SDS011;66481;51.332;22.804;2023-05-18T08:18:06;5.18;;;2.20;;
77409;SDS011;66481;51.332;22.804;2023-05-18T08:22:07;5.70;;;2.22;;
77409;SDS011;66481;51.332;22.804;2023-05-18T08:26:08;6.15;;;2.60;;
77409;SDS011;66481;51.332;22.804;2023-05-18T08:30:09;3.33;;;1.83;;
77409;SDS011;66481;51.332;22.804;2023-05-18T08:34:10;3.72;;;2.15;;
77409;SDS011;66481;51.332;22.804;2023-05-18T08:38:13;3.60;;;1.85;;
77409;SDS011;66481;51.332;22.804;2023-05-18T08:42:32;4.18;;;2.30;;
77409;SDS011;66481;51.332;22.804;2023-05-18T08:46:40;4.75;;;2.25;;
77409;SDS011;66481;51.332;22.804;2023-05-18T08:50:46;9.85;;;2.35;;
77409;SDS011;66481;51.332;22.804;2023-05-18T08:54:49;6.50;;;2.42;;
77409;SDS011;66481;51.332;22.804;2023-05-18T08:58:54;6.28;;;2.40;;
77409;SDS011;66481;51.332;22.804;2023-05-18T09:02:56;3.50;;;2.20;;
77409;SDS011;66481;51.332;22.804;2023-05-18T09:06:57;5.00;;;2.88;;
77409;SDS011;66481;51.332;22.804;2023-05-18T09:11:02;5.43;;;2.53;;
77409;SDS011;66481;51.332;22.804;2023-05-18T09:15:06;5.45;;;2.67;;
77409;SDS011;66481;51.332;22.804;2023-05-18T09:19:09;4.50;;;2.20;;
77409;SDS011;66481;51.332;22.804;2023-05-18T09:23:11;7.03;;;2.58;;
77409;SDS011;66481;51.332;22.804;2023-05-18T09:27:15;8.63;;;2.85;;
77409;SDS011;66481;51.332;22.804;2023-05-18T09:31:17;4.32;;;2.30;;
77409;SDS011;66481;51.332;22.804;2023-05-18T09:35:19;7.93;;;3.22;;
77409;SDS011;66481;51.332;22.804;2023-05-18T09:39:20;3.88;;;2.75;;
77409;SDS011;66481;51.332;22.804;2023-05-18T09:43:21;6.80;;;2.97;;
77409;SDS011;66481;51.332;22.804;2023-05-18T09:47:22;6.05;;;2.60;;
77409;SDS011;66481;51.332;22.804;2023-05-18T09:51:23;3.85;;;2.60;;
77409;SDS011;66481;51.332;22.804;2023-05-18T09:55:24;5.82;;;2.85;;
77409;SDS011;66481;51.332;22.804;2023-05-18T09:59:26;4.13;;;2.47;;
77409;SDS011;66481;51.332;22.804;2023-05-18T10:03:40;7.10;;;3.22;;
77409;SDS011;66481;51.332;22.804;2023-05-18T10:07:42;6.15;;;2.95;;
77409;SDS011;66481;51.332;22.804;2023-05-18T10:11:54;3.92;;;2.55;;
77409;SDS011;66481;51.332;22.804;2023-05-18T10:15:57;6.88;;;2.70;;
77409;SDS011;66481;51.332;22.804;2023-05-18T10:19:59;5.20;;;2.65;;
77409;SDS011;66481;51.332;22.804;2023-05-18T10:24:02;7.20;;;2.75;;
77409;SDS011;66481;51.332;22.804;2023-05-18T10:28:06;2.60;;;2.20;;
77409;SDS011;66481;51.332;22.804;2023-05-18T10:32:11;8.65;;;3.00;;
77409;SDS011;66481;51.332;22.804;2023-05-18T10:36:13;4.30;;;2.55;;
77409;SDS011;66481;51.332;22.804;2023-05-18T10:40:16;4.95;;;2.47;;
77409;SDS011;66481;51.332;22.804;2023-05-18T10:44:21;5.97;;;3.05;;
77409;SDS011;66481;51.332;22.804;2023-05-18T10:48:24;3.97;;;2.88;;
77409;SDS011;66481;51.332;22.804;2023-05-18T10:52:27;5.63;;;2.45;;
77409;SDS011;66481;51.332;22.804;2023-05-18T10:56:31;4.60;;;2.28;;
77409;SDS011;66481;51.332;22.804;2023-05-18T11:00:33;5.65;;;2.10;;
77409;SDS011;66481;51.332;22.804;2023-05-18T11:04:37;6.63;;;2.53;;
77409;SDS011;66481;51.332;22.804;2023-05-18T11:08:49;4.13;;;2.20;;
77409;SDS011;66481;51.332;22.804;2023-05-18T11:12:50;5.05;;;2.22;;
77409;SDS011;66481;51.332;22.804;2023-05-18T11:16:52;2.78;;;2.10;;
77409;SDS011;66481;51.332;22.804;2023-05-18T11:20:54;5.28;;;3.05;;
77409;SDS011;66481;51.332;22.804;2023-05-18T11:24:55;5.25;;;2.90;;
77409;SDS011;66481;51.332;22.804;2023-05-18T11:28:57;3.42;;;2.75;;
77409;SDS011;66481;51.332;22.804;2023-05-18T11:42:07;7.60;;;2.72;;
77409;SDS011;66481;51.332;22.804;2023-05-18T11:46:10;5.95;;;2.70;;
77409;SDS011;66481;51.332;22.804;2023-05-18T11:50:18;3.83;;;2.10;;
77409;SDS011;66481;51.332;22.804;2023-05-18T11:54:19;3.67;;;2.30;;
77409;SDS011;66481;51.332;22.804;2023-05-18T11:58:23;6.60;;;3.10;;
77409;SDS011;66481;51.332;22.804;2023-05-18T12:02:26;4.50;;;2.42;;
77409;SDS011;66481;51.332;22.804;2023-05-18T12:06:30;4.18;;;2.30;;
77409;SDS011;66481;51.332;22.804;2023-05-18T12:10:31;5.22;;;2.63;;
77409;SDS011;66481;51.332;22.804;2023-05-18T12:14:40;3.38;;;2.17;;
77409;SDS011;66481;51.332;22.804;2023-05-18T12:18:47;3.20;;;2.17;;
77409;SDS011;66481;51.332;22.804;2023-05-18T12:22:49;5.75;;;2.58;;
77409;SDS011;66481;51.332;22.804;2023-05-18T12:26:52;4.15;;;2.28;;
77409;SDS011;66481;51.332;22.804;2023-05-18T12:30:55;3.58;;;1.98;;
77409;SDS011;66481;51.332;22.804;2023-05-18T12:34:56;8.65;;;2.67;;
77409;SDS011;66481;51.332;22.804;2023-05-18T12:38:59;3.88;;;2.17;;
77409;SDS011;66481;51.332;22.804;2023-05-18T12:43:01;5.95;;;2.17;;
77409;SDS011;66481;51.332;22.804;2023-05-18T12:47:03;6.70;;;2.60;;
77409;SDS011;66481;51.332;22.804;2023-05-18T12:51:05;6.00;;;2.63;;
77409;SDS011;66481;51.332;22.804;2023-05-18T12:55:19;4.43;;;2.50;;
77409;SDS011;66481;51.332;22.804;2023-05-18T12:59:21;5.10;;;2.65;;
77409;SDS011;66481;51.332;22.804;2023-05-18T13:03:23;6.43;;;3.33;;
77409;SDS011;66481;51.332;22.804;2023-05-18T13:07:24;5.57;;;3.10;;
77409;SDS011;66481;51.332;22.804;2023-05-18T13:11:26;7.45;;;3.20;;
77409;SDS011;66481;51.332;22.804;2023-05-18T13:15:27;6.13;;;3.75;;
77409;SDS011;66481;51.332;22.804;2023-05-18T13:19:41;4.90;;;2.92;;
77409;SDS011;66481;51.332;22.804;2023-05-18T13:23:42;5.30;;;2.35;;
77409;SDS011;66481;51.332;22.804;2023-05-18T13:27:43;6.38;;;4.00;;
77409;SDS011;66481;51.332;22.804;2023-05-18T13:31:45;5.82;;;3.30;;
77409;SDS011;66481;51.332;22.804;2023-05-18T13:35:49;5.03;;;2.60;;
77409;SDS011;66481;51.332;22.804;2023-05-18T13:39:50;27.13;;;12.82;;
77409;SDS011;66481;51.332;22.804;2023-05-18T13:43:51;7.57;;;3.20;;
77409;SDS011;66481;51.332;22.804;2023-05-18T13:47:52;6.15;;;4.05;;
77409;SDS011;66481;51.332;22.804;2023-05-18T13:51:53;5.60;;;3.58;;
77409;SDS011;66481;51.332;22.804;2023-05-18T13:55:54;6.55;;;3.25;;
77409;SDS011;66481;51.332;22.804;2023-05-18T13:59:55;4.70;;;2.70;;
77409;SDS011;66481;51.332;22.804;2023-05-18T14:03:58;8.82;;;2.97;;
77409;SDS011;66481;51.332;22.804;2023-05-18T14:07:59;5.45;;;2.67;;
77409;SDS011;66481;51.332;22.804;2023-05-18T14:12:01;3.53;;;2.00;;
77409;SDS011;66481;51.332;22.804;2023-05-18T14:16:05;5.13;;;2.58;;
77409;SDS011;66481;51.332;22.804;2023-05-18T14:20:07;5.10;;;2.63;;
77409;SDS011;66481;51.332;22.804;2023-05-18T14:24:08;3.95;;;2.80;;
77409;SDS011;66481;51.332;22.804;2023-05-18T14:28:10;6.07;;;2.63;;
77409;SDS011;66481;51.332;22.804;2023-05-18T14:32:12;7.20;;;3.38;;
77409;SDS011;66481;51.332;22.804;2023-05-18T14:36:14;6.65;;;2.75;;
77409;SDS011;66481;51.332;22.804;2023-05-18T14:40:18;13.52;;;4.75;;
77409;SDS011;66481;51.332;22.804;2023-05-18T14:44:19;14.02;;;5.68;;
77409;SDS011;66481;51.332;22.804;2023-05-18T14:48:20;10.50;;;4.68;;
77409;SDS011;66481;51.332;22.804;2023-05-18T14:52:21;16.60;;;6.00;;
77409;SDS011;66481;51.332;22.804;2023-05-18T14:56:22;13.52;;;6.00;;
77409;SDS011;66481;51.332;22.804;2023-05-18T15:00:23;8.07;;;4.30;;
77409;SDS011;66481;51.332;22.804;2023-05-18T15:04:24;11.93;;;4.43;;
77409;SDS011;66481;51.332;22.804;2023-05-18T15:08:25;12.60;;;5.28;;
77409;SDS011;66481;51.332;22.804;2023-05-18T15:12:26;10.00;;;4.03;;
77409;SDS011;66481;51.332;22.804;2023-05-18T15:16:28;6.63;;;3.03;;
77409;SDS011;66481;51.332;22.804;2023-05-18T15:20:29;8.00;;;3.42;;
77409;SDS011;66481;51.332;22.804;2023-05-18T15:24:30;10.48;;;4.13;;
77409;SDS011;66481;51.332;22.804;2023-05-18T15:28:31;15.15;;;4.47;;
77409;SDS011;66481;51.332;22.804;2023-05-18T15:32:32;25.17;;;14.15;;
77409;SDS011;66481;51.332;22.804;2023-05-18T15:36:33;37.13;;;23.75;;
77409;SDS011;66481;51.332;22.804;2023-05-18T15:40:35;28.55;;;25.48;;
77409;SDS011;66481;51.332;22.804;2023-05-18T15:44:37;66.65;;;18.35;;
77409;SDS011;66481;51.332;22.804;2023-05-18T15:48:37;9.07;;;5.57;;
77409;SDS011;66481;51.332;22.804;2023-05-18T15:52:39;9.57;;;4.50;;
77409;SDS011;66481;51.332;22.804;2023-05-18T15:56:40;59.28;;;28.35;;
77409;SDS011;66481;51.332;22.804;2023-05-18T16:00:41;36.13;;;32.03;;
77409;SDS011;66481;51.332;22.804;2023-05-18T16:04:44;38.60;;;12.95;;
77409;SDS011;66481;51.332;22.804;2023-05-18T16:08:45;45.53;;;14.27;;
77409;SDS011;66481;51.332;22.804;2023-05-18T16:12:47;14.32;;;12.43;;
77409;SDS011;66481;51.332;22.804;2023-05-18T16:16:48;34.10;;;16.73;;
77409;SDS011;66481;51.332;22.804;2023-05-18T16:20:49;23.38;;;8.77;;
77409;SDS011;66481;51.332;22.804;2023-05-18T16:24:50;16.60;;;8.48;;
77409;SDS011;66481;51.332;22.804;2023-05-18T16:28:52;9.48;;;5.25;;
77409;SDS011;66481;51.332;22.804;2023-05-18T16:32:54;13.32;;;6.63;;
77409;SDS011;66481;51.332;22.804;2023-05-18T16:36:55;20.38;;;8.68;;
77409;SDS011;66481;51.332;22.804;2023-05-18T16:40:57;10.30;;;5.38;;
77409;SDS011;66481;51.332;22.804;2023-05-18T16:44:58;12.55;;;6.78;;
77409;SDS011;66481;51.332;22.804;2023-05-18T16:49:00;19.58;;;8.55;;
77409;SDS011;66481;51.332;22.804;2023-05-18T16:53:01;21.98;;;10.88;;
77409;SDS011;66481;51.332;22.804;2023-05-18T16:57:03;15.05;;;6.93;;
77409;SDS011;66481;51.332;22.804;2023-05-18T17:01:04;12.77;;;5.85;;
77409;SDS011;66481;51.332;22.804;2023-05-18T17:05:07;13.73;;;7.35;;
77409;SDS011;66481;51.332;22.804;2023-05-18T17:09:09;17.45;;;8.43;;
77409;SDS011;66481;51.332;22.804;2023-05-18T17:13:10;12.57;;;7.05;;
77409;SDS011;66481;51.332;22.804;2023-05-18T17:17:12;11.32;;;5.82;;
77409;SDS011;66481;51.332;22.804;2023-05-18T17:25:26;11.52;;;6.68;;
77409;SDS011;66481;51.332;22.804;2023-05-18T17:29:27;11.55;;;6.05;;
77409;SDS011;66481;51.332;22.804;2023-05-18T17:33:29;10.60;;;4.97;;
77409;SDS011;66481;51.332;22.804;2023-05-18T17:37:30;11.50;;;5.63;;
77409;SDS011;66481;51.332;22.804;2023-05-18T17:41:31;11.20;;;5.75;;
77409;SDS011;66481;51.332;22.804;2023-05-18T17:45:33;11.95;;;5.40;;
77409;SDS011;66481;51.332;22.804;2023-05-18T17:49:34;10.63;;;5.53;;
77409;SDS011;66481;51.332;22.804;2023-05-18T17:53:35;12.77;;;6.22;;
77409;SDS011;66481;51.332;22.804;2023-05-18T17:57:41;14.48;;;7.20;;
77409;SDS011;66481;51.332;22.804;2023-05-18T18:01:44;12.38;;;6.18;;
77409;SDS011;66481;51.332;22.804;2023-05-18T18:05:45;10.52;;;6.25;;
77409;SDS011;66481;51.332;22.804;2023-05-18T18:09:47;15.45;;;7.03;;
77409;SDS011;66481;51.332;22.804;2023-05-18T18:13:48;12.05;;;6.22;;
77409;SDS011;66481;51.332;22.804;2023-05-18T18:17:50;13.90;;;8.15;;
77409;SDS011;66481;51.332;22.804;2023-05-18T18:21:52;13.25;;;8.95;;
77409;SDS011;66481;51.332;22.804;2023-05-18T18:25:53;12.88;;;9.05;;
77409;SDS011;66481;51.332;22.804;2023-05-18T18:29:55;14.27;;;8.77;;
77409;SDS011;66481;51.332;22.804;2023-05-18T18:33:56;17.25;;;10.40;;
77409;SDS011;66481;51.332;22.804;2023-05-18T18:37:57;18.50;;;9.02;;
77409;SDS011;66481;51.332;22.804;2023-05-18T18:41:59;28.45;;;10.13;;
77409;SDS011;66481;51.332;22.804;2023-05-18T18:46:01;33.13;;;12.90;;
77409;SDS011;66481;51.332;22.804;2023-05-18T18:50:03;17.50;;;7.72;;
77409;SDS011;66481;51.332;22.804;2023-05-18T18:54:05;20.23;;;7.93;;
77409;SDS011;66481;51.332;22.804;2023-05-18T18:58:07;10.10;;;7.45;;
77409;SDS011;66481;51.332;22.804;2023-05-18T19:02:08;10.60;;;5.90;;
77409;SDS011;66481;51.332;22.804;2023-05-18T19:06:10;8.65;;;4.80;;
77409;SDS011;66481;51.332;22.804;2023-05-18T19:10:14;11.82;;;5.53;;
77409;SDS011;66481;51.332;22.804;2023-05-18T19:14:16;13.85;;;5.35;;
77409;SDS011;66481;51.332;22.804;2023-05-18T19:18:17;10.48;;;4.80;;
77409;SDS011;66481;51.332;22.804;2023-05-18T19:22:19;10.82;;;5.28;;
77409;SDS011;66481;51.332;22.804;2023-05-18T19:26:20;8.80;;;3.95;;
77409;SDS011;66481;51.332;22.804;2023-05-18T19:30:22;11.25;;;4.32;;
77409;SDS011;66481;51.332;22.804;2023-05-18T19:34:24;11.00;;;5.47;;
77409;SDS011;66481;51.332;22.804;2023-05-18T19:38:25;10.15;;;4.82;;
77409;SDS011;66481;51.332;22.804;2023-05-18T19:42:26;13.48;;;5.75;;
77409;SDS011;66481;51.332;22.804;2023-05-18T19:46:29;12.98;;;7.05;;
77409;SDS011;66481;51.332;22.804;2023-05-18T19:50:30;8.05;;;5.25;;
77409;SDS011;66481;51.332;22.804;2023-05-18T19:54:31;8.32;;;5.07;;
77409;SDS011;66481;51.332;22.804;2023-05-18T19:58:34;10.48;;;5.22;;
77409;SDS011;66481;51.332;22.804;2023-05-18T20:02:35;11.07;;;5.65;;
77409;SDS011;66481;51.332;22.804;2023-05-18T20:06:37;11.43;;;5.75;;
77409;SDS011;66481;51.332;22.804;2023-05-18T20:10:39;8.77;;;5.40;;
77409;SDS011;66481;51.332;22.804;2023-05-18T20:14:40;12.07;;;6.00;;
77409;SDS011;66481;51.332;22.804;2023-05-18T20:18:43;8.63;;;5.13;;
77409;SDS011;66481;51.332;22.804;2023-05-18T20:22:45;11.55;;;5.90;;
77409;SDS011;66481;51.332;22.804;2023-05-18T20:26:46;8.68;;;5.32;;
77409;SDS011;66481;51.332;22.804;2023-05-18T20:30:47;9.65;;;5.63;;
77409;SDS011;66481;51.332;22.804;2023-05-18T20:34:50;9.68;;;5.28;;
77409;SDS011;66481;51.332;22.804;2023-05-18T20:38:51;10.43;;;6.00;;
77409;SDS011;66481;51.332;22.804;2023-05-18T20:42:53;9.35;;;5.15;;
77409;SDS011;66481;51.332;22.804;2023-05-18T20:46:55;10.57;;;5.78;;
77409;SDS011;66481;51.332;22.804;2023-05-18T20:50:56;11.70;;;5.35;;
77409;SDS011;66481;51.332;22.804;2023-05-18T20:54:58;12.98;;;6.15;;
77409;SDS011;66481;51.332;22.804;2023-05-18T20:59:00;9.20;;;5.78;;
77409;SDS011;66481;51.332;22.804;2023-05-18T21:03:01;11.43;;;5.55;;
77409;SDS011;66481;51.332;22.804;2023-05-18T21:07:06;9.68;;;6.30;;
77409;SDS011;66481;51.332;22.804;2023-05-18T21:11:09;10.48;;;5.28;;
77409;SDS011;66481;51.332;22.804;2023-05-18T21:15:18;10.38;;;6.40;;
77409;SDS011;66481;51.332;22.804;2023-05-18T21:19:29;12.18;;;5.80;;
77409;SDS011;66481;51.332;22.804;2023-05-18T21:23:35;8.38;;;5.13;;
77409;SDS011;66481;51.332;22.804;2023-05-18T21:27:39;9.85;;;5.70;;
77409;SDS011;66481;51.332;22.804;2023-05-18T21:31:47;10.20;;;6.05;;
77409;SDS011;66481;51.332;22.804;2023-05-18T21:35:47;12.85;;;6.70;;
77409;SDS011;66481;51.332;22.804;2023-05-18T21:39:49;8.70;;;5.95;;
77409;SDS011;66481;51.332;22.804;2023-05-18T21:43:50;13.30;;;5.95;;
77409;SDS011;66481;51.332;22.804;2023-05-18T21:47:51;11.63;;;6.10;;
77409;SDS011;66481;51.332;22.804;2023-05-18T21:51:52;8.90;;;6.40;;
77409;SDS011;66481;51.332;22.804;2023-05-18T21:55:54;12.35;;;6.53;;
77409;SDS011;66481;51.332;22.804;2023-05-18T21:59:55;13.43;;;6.75;;
77409;SDS011;66481;51.332;22.804;2023-05-18T22:03:56;11.43;;;6.40;;
77409;SDS011;66481;51.332;22.804;2023-05-18T22:07:57;15.77;;;7.10;;
77409;SDS011;66481;51.332;22.804;2023-05-18T22:11:58;16.55;;;6.50;;
77409;SDS011;66481;51.332;22.804;2023-05-18T22:16:01;13.32;;;6.40;;
77409;SDS011;66481;51.332;22.804;2023-05-18T22:20:03;13.32;;;6.63;;
77409;SDS011;66481;51.332;22.804;2023-05-18T22:24:11;10.48;;;5.93;;
77409;SDS011;66481;51.332;22.804;2023-05-18T22:28:12;13.32;;;6.85;;
77409;SDS011;66481;51.332;22.804;2023-05-18T22:32:13;10.60;;;6.18;;
77409;SDS011;66481;51.332;22.804;2023-05-18T22:36:15;10.20;;;5.93;;
77409;SDS011;66481;51.332;22.804;2023-05-18T22:40:17;10.40;;;6.47;;
77409;SDS011;66481;51.332;22.804;2023-05-18T22:44:18;11.45;;;6.82;;
77409;SDS011;66481;51.332;22.804;2023-05-18T22:48:19;14.27;;;6.82;;
77409;SDS011;66481;51.332;22.804;2023-05-18T22:52:20;11.90;;;7.05;;
77409;SDS011;66481;51.332;22.804;2023-05-18T22:56:22;12.38;;;7.00;;
77409;SDS011;66481;51.332;22.804;2023-05-18T23:00:23;12.63;;;7.00;;
77409;SDS011;66481;51.332;22.804;2023-05-18T23:04:26;14.85;;;6.75;;
77409;SDS011;66481;51.332;22.804;2023-05-18T23:08:27;11.43;;;6.50;;
77409;SDS011;66481;51.332;22.804;2023-05-18T23:12:29;11.65;;;6.80;;
77409;SDS011;66481;51.332;22.804;2023-05-18T23:16:31;12.75;;;7.03;;
77409;SDS011;66481;51.332;22.804;2023-05-18T23:20:33;11.38;;;6.00;;
77409;SDS011;66481;51.332;22.804;2023-05-18T23:24:34;15.50;;;5.93;;
77409;SDS011;66481;51.332;22.804;2023-05-18T23:28:35;10.48;;;5.80;;
77409;SDS011;66481;51.332;22.804;2023-05-18T23:32:37;10.90;;;5.72;;
77409;SDS011;66481;51.332;22.804;2023-05-18T23:36:38;11.02;;;5.30;;
77409;SDS011;66481;51.332;22.804;2023-05-18T23:40:42;9.68;;;5.05;;
77409;SDS011;66481;51.332;22.804;2023-05-18T23:44:43;8.60;;;5.18;;
77409;SDS011;66481;51.332;22.804;2023-05-18T23:48:44;12.38;;;5.50;;
77409;SDS011;66481;51.332;22.804;2023-05-18T23:52:46;8.63;;;5.50;;
77409;SDS011;66481;51.332;22.804;2023-05-18T23:56:48;9.40;;;5.65;;
